Pilot Butte, Canada
Current Conditions -  °F | °C
As of 12:12 PM on Friday 28 Nov 2014 (Local Time) from CYQR Reporting Station
Light Snow Light Snow  
Wind Chill: -23°   Ceiling: 1800
Heat Index: -12°   Visibility: 1mi
Dew Point: -14°   Wind: 24mph
Humidity: 85%   Direction: 130°SE
Pressure: 29.58"   Gusts: 33mph
Location:  50.48°N, 104.42°W
Report Text: CYQR 281812Z 13021G29KT 1SM R13/6000FT/N -SN BLSN OVC018 M12/M14 A2958 RMK BLSN3SC5 VIS VRBL 3/4 - 1 1/4SM SLP058
Loading
Personal Weather Stations






























Interactive Weather Map New forecast layout! Learn more

10-Day Weather Forecast

Advertisements
Track Severe Weather on mobile